createdAt,value
2023-02-25T00:02:12.008Z,10.90
2023-02-25T00:04:42.184Z,8.87
2023-02-25T00:07:11.211Z,11.17
2023-02-25T00:09:39.868Z,9.40
2023-02-25T00:12:08.791Z,9.30
2023-02-25T00:14:37.242Z,10.77
2023-02-25T00:17:06.204Z,10.27
2023-02-25T00:19:34.726Z,11.37
2023-02-25T00:22:04.830Z,10.60
2023-02-25T00:24:33.342Z,10.60
2023-02-25T00:27:02.462Z,10.53
2023-02-25T00:29:31.148Z,11.30
2023-02-25T00:32:00.059Z,9.97
2023-02-25T00:34:29.232Z,9.20
2023-02-25T00:36:58.550Z,9.80
2023-02-25T00:39:41.964Z,10.27
2023-02-25T00:42:11.560Z,10.40
2023-02-25T00:44:40.232Z,10.53
2023-02-25T00:47:08.959Z,9.83
2023-02-25T00:49:39.186Z,10.70
2023-02-25T00:52:08.767Z,10.93
2023-02-25T00:54:39.538Z,10.47
2023-02-25T00:57:08.367Z,10.03
2023-02-25T00:59:37.495Z,10.00
2023-02-25T01:02:06.570Z,9.87
2023-02-25T01:04:35.147Z,11.70
2023-02-25T01:07:03.997Z,10.57
2023-02-25T01:09:34.167Z,10.37
2023-02-25T01:12:05.044Z,11.27
2023-02-25T01:14:33.698Z,9.27
2023-02-25T01:17:03.340Z,11.63
2023-02-25T01:19:31.928Z,10.47
2023-02-25T01:22:01.080Z,9.33
2023-02-25T01:24:32.716Z,10.63
2023-02-25T01:27:05.198Z,10.40
2023-02-25T01:29:35.867Z,9.60
2023-02-25T01:32:07.217Z,9.93
2023-02-25T01:34:35.913Z,9.77
2023-02-25T01:37:05.500Z,9.20
2023-02-25T01:39:34.575Z,9.83
2023-02-25T01:42:12.574Z,10.33
2023-02-25T01:45:14.087Z,9.37
2023-02-25T01:47:43.169Z,9.93
2023-02-25T01:50:12.216Z,10.27
2023-02-25T01:52:42.767Z,10.30
2023-02-25T01:55:12.214Z,7.97
2023-02-25T01:57:42.466Z,8.73
2023-02-25T02:00:16.186Z,8.40
2023-02-25T02:02:46.129Z,8.83
2023-02-25T02:05:15.256Z,8.33
2023-02-25T02:07:44.284Z,9.47
2023-02-25T02:10:13.256Z,11.33
2023-02-25T02:12:46.925Z,9.70
2023-02-25T02:15:16.783Z,10.07
2023-02-25T02:17:51.749Z,10.03
2023-02-25T02:20:25.228Z,9.57
2023-02-25T02:23:23.134Z,8.93
2023-02-25T02:26:25.153Z,9.77
2023-02-25T02:29:23.701Z,10.07
2023-02-25T02:31:59.850Z,9.67
2023-02-25T02:34:38.031Z,10.50
2023-02-25T02:37:16.711Z,9.93
2023-02-25T02:39:54.375Z,9.60
2023-02-25T02:42:33.014Z,9.30
2023-02-25T02:45:06.074Z,9.67
2023-02-25T02:47:39.439Z,10.93
2023-02-25T02:50:13.442Z,10.33
2023-02-25T02:52:44.235Z,8.50
2023-02-25T02:55:22.183Z,9.53
2023-02-25T02:57:56.463Z,8.83
2023-02-25T03:00:30.273Z,9.40
2023-02-25T03:03:06.688Z,11.80
2023-02-25T03:05:38.183Z,9.57
2023-02-25T03:08:10.323Z,9.80
2023-02-25T03:10:39.288Z,8.13
2023-02-25T03:13:08.251Z,8.90
2023-02-25T03:15:39.162Z,10.67
2023-02-25T03:18:17.531Z,8.63
2023-02-25T03:20:49.440Z,8.70
2023-02-25T03:23:22.184Z,9.40
2023-02-25T03:25:54.724Z,9.83
2023-02-25T03:28:30.992Z,8.53
2023-02-25T03:31:06.372Z,9.60
2023-02-25T03:33:41.277Z,9.43
2023-02-25T03:36:14.815Z,9.17
2023-02-25T03:38:46.923Z,7.50
2023-02-25T03:41:17.634Z,9.70
2023-02-25T03:43:49.471Z,8.93
2023-02-25T03:46:21.476Z,9.57
2023-02-25T03:48:52.864Z,8.97
2023-02-25T03:51:25.981Z,9.37
2023-02-25T03:53:54.723Z,10.47
2023-02-25T03:56:28.909Z,8.93
2023-02-25T03:58:57.515Z,8.33
2023-02-25T04:01:31.367Z,9.60
2023-02-25T04:04:01.447Z,8.03
2023-02-25T04:06:30.213Z,8.60
2023-02-25T04:08:59.655Z,8.53
2023-02-25T04:11:28.507Z,8.63
2023-02-25T04:13:57.063Z,8.07
2023-02-25T04:16:26.419Z,8.60
2023-02-25T04:18:56.281Z,8.13
2023-02-25T04:21:32.044Z,7.40
2023-02-25T04:24:00.941Z,6.73
2023-02-25T04:26:29.676Z,7.47
2023-02-25T04:28:58.298Z,7.40
2023-02-25T04:31:27.398Z,7.53
2023-02-25T04:33:58.144Z,7.67
2023-02-25T04:36:31.408Z,5.50
2023-02-25T04:39:01.565Z,7.57
2023-02-25T04:41:33.149Z,6.53
2023-02-25T04:44:03.948Z,5.87
2023-02-25T04:46:33.773Z,6.97
2023-02-25T04:49:02.364Z,8.43
2023-02-25T04:51:32.647Z,7.03
2023-02-25T04:54:01.177Z,7.83
2023-02-25T04:56:29.966Z,12.30
2023-02-25T04:58:59.012Z,12.97
2023-02-25T05:01:28.066Z,15.33
2023-02-25T05:03:57.062Z,21.00
2023-02-25T05:06:26.843Z,8.47
2023-02-25T05:08:57.945Z,8.07
2023-02-25T05:11:28.431Z,8.83
2023-02-25T05:13:57.214Z,9.80
2023-02-25T05:16:27.310Z,7.33
2023-02-25T05:18:56.202Z,8.57
2023-02-25T05:21:27.294Z,7.63
2023-02-25T05:23:57.274Z,6.67
2023-02-25T05:26:26.895Z,6.43
2023-02-25T05:28:58.094Z,6.67
2023-02-25T05:31:27.423Z,5.00
2023-02-25T05:33:55.952Z,5.77
2023-02-25T05:36:28.019Z,7.20
2023-02-25T05:39:02.673Z,12.97
2023-02-25T05:41:32.188Z,11.37
2023-02-25T05:44:00.623Z,8.37
2023-02-25T05:46:29.934Z,5.97
2023-02-25T05:48:58.504Z,6.27
2023-02-25T05:51:27.558Z,5.63
2023-02-25T05:53:58.423Z,8.43
2023-02-25T05:56:30.217Z,7.77
2023-02-25T05:59:00.207Z,14.70
2023-02-25T06:01:29.658Z,7.77
2023-02-25T06:03:59.376Z,7.67
2023-02-25T06:06:30.176Z,5.37
2023-02-25T06:09:00.332Z,5.37
2023-02-25T06:11:32.566Z,4.67
2023-02-25T06:14:01.597Z,5.23
2023-02-25T06:16:32.611Z,5.63
2023-02-25T06:19:02.277Z,9.07
2023-02-25T06:21:31.487Z,5.93
2023-02-25T06:24:03.679Z,5.80
2023-02-25T06:26:35.379Z,10.37
2023-02-25T06:29:03.951Z,7.73
2023-02-25T06:31:32.729Z,6.37
2023-02-25T06:34:01.784Z,13.37
2023-02-25T06:36:30.823Z,7.60
2023-02-25T06:39:01.118Z,5.47
2023-02-25T06:41:29.950Z,8.10
2023-02-25T06:43:58.608Z,7.43
2023-02-25T06:46:28.326Z,7.97
2023-02-25T06:48:57.399Z,12.97
2023-02-25T06:51:26.442Z,11.13
2023-02-25T06:53:54.852Z,8.07
2023-02-25T06:56:26.794Z,16.77
2023-02-25T06:58:56.724Z,9.30
2023-02-25T07:01:25.901Z,9.93
2023-02-25T07:03:55.024Z,7.20
2023-02-25T07:06:24.176Z,9.80
2023-02-25T07:08:52.763Z,9.53
2023-02-25T07:11:33.697Z,22.23
2023-02-25T07:14:03.195Z,24.40
2023-02-25T07:16:32.084Z,28.87
2023-02-25T07:19:01.725Z,32.73
2023-02-25T07:21:31.080Z,42.27
2023-02-25T07:24:00.284Z,46.10
2023-02-25T07:26:30.520Z,45.73
2023-02-25T07:29:00.438Z,42.17
2023-02-25T07:31:30.075Z,49.33
2023-02-25T07:34:03.306Z,48.10
2023-02-25T07:36:33.495Z,44.40
2023-02-25T07:39:02.183Z,46.27
2023-02-25T07:41:32.512Z,42.87
2023-02-25T07:44:04.496Z,42.90
2023-02-25T07:46:34.274Z,39.80
2023-02-25T07:49:03.338Z,36.50
2023-02-25T07:51:32.173Z,39.47
2023-02-25T07:54:00.933Z,43.07
2023-02-25T07:56:32.070Z,41.37
2023-02-25T07:59:01.272Z,43.20
2023-02-25T08:01:33.111Z,44.73
2023-02-25T08:04:05.572Z,47.37
2023-02-25T08:06:37.618Z,42.93
2023-02-25T08:09:06.787Z,51.27
2023-02-25T08:11:37.164Z,51.60
2023-02-25T08:14:06.065Z,57.67
2023-02-25T08:16:35.611Z,51.90
2023-02-25T08:19:04.649Z,61.53
2023-02-25T08:21:33.884Z,48.37
2023-02-25T08:24:02.379Z,47.53
2023-02-25T08:26:31.194Z,45.57
2023-02-25T08:29:01.194Z,43.23
2023-02-25T08:31:30.231Z,50.60
2023-02-25T08:33:59.644Z,42.57
2023-02-25T08:36:30.561Z,77.30
2023-02-25T08:39:00.294Z,78.13
2023-02-25T08:41:30.345Z,58.40
2023-02-25T08:44:02.082Z,51.67
2023-02-25T08:46:34.041Z,73.17
2023-02-25T08:49:03.905Z,62.77
2023-02-25T08:51:39.839Z,64.73
2023-02-25T08:54:11.970Z,58.07
2023-02-25T08:56:44.218Z,67.30
2023-02-25T08:59:16.664Z,62.60
2023-02-25T09:01:57.744Z,67.90
2023-02-25T09:04:26.252Z,58.20
2023-02-25T09:06:58.434Z,68.47
2023-02-25T09:09:27.292Z,54.67
2023-02-25T09:11:56.706Z,57.43
2023-02-25T09:14:26.672Z,60.13
2023-02-25T09:16:55.557Z,53.37
2023-02-25T09:19:24.104Z,65.97
2023-02-25T09:21:53.198Z,62.40
2023-02-25T09:24:21.905Z,49.80
2023-02-25T09:26:51.029Z,56.00
2023-02-25T09:29:22.168Z,34.30
2023-02-25T09:31:53.983Z,35.00
2023-02-25T09:34:22.688Z,41.90
2023-02-25T09:36:51.663Z,37.67
2023-02-25T09:39:21.118Z,56.80
2023-02-25T09:41:55.580Z,49.20
2023-02-25T09:44:28.419Z,55.50
2023-02-25T09:47:04.368Z,49.17
2023-02-25T09:49:38.670Z,49.23
2023-02-25T09:52:14.529Z,56.43
2023-02-25T09:54:45.927Z,52.77
2023-02-25T09:57:19.132Z,58.47
2023-02-25T09:59:48.323Z,49.57
2023-02-25T10:02:28.365Z,33.50
2023-02-25T10:05:07.978Z,29.63
2023-02-25T10:07:42.720Z,30.53
2023-02-25T10:10:17.297Z,35.50
2023-02-25T10:12:56.856Z,26.23
2023-02-25T10:15:34.248Z,31.50
2023-02-25T10:18:15.228Z,17.00
2023-02-25T10:21:00.021Z,29.20
2023-02-25T10:23:41.013Z,20.87
2023-02-25T10:26:18.452Z,34.40
2023-02-25T10:28:50.796Z,43.23
2023-02-25T10:31:21.047Z,36.40
2023-02-25T10:33:58.469Z,24.60
2023-02-25T10:36:32.046Z,33.03
2023-02-25T10:39:01.340Z,25.20
2023-02-25T10:41:30.547Z,25.03
2023-02-25T10:43:59.455Z,30.17
2023-02-25T10:46:34.689Z,31.40
2023-02-25T10:49:16.659Z,41.17
2023-02-25T10:52:03.211Z,40.97
2023-02-25T10:54:33.314Z,50.13
2023-02-25T10:57:03.449Z,41.90
2023-02-25T10:59:37.159Z,46.07
2023-02-25T11:02:20.497Z,35.73
2023-02-25T11:04:52.420Z,40.33
2023-02-25T11:07:34.230Z,40.00
2023-02-25T11:10:16.082Z,39.17
2023-02-25T11:12:47.181Z,35.23
2023-02-25T11:15:45.329Z,32.73
2023-02-25T11:18:30.316Z,45.00
2023-02-25T11:21:03.357Z,33.47
2023-02-25T11:23:35.536Z,22.40
2023-02-25T11:26:06.544Z,18.63
2023-02-25T11:28:40.130Z,43.60
2023-02-25T11:31:12.994Z,60.17
2023-02-25T11:33:45.098Z,61.70
2023-02-25T11:36:23.663Z,51.20
2023-02-25T11:39:14.751Z,37.57
2023-02-25T11:41:44.798Z,55.90
2023-02-25T11:44:30.369Z,81.87
2023-02-25T11:47:08.452Z,79.40
2023-02-25T11:50:12.398Z,52.13
2023-02-25T11:52:46.018Z,74.23
2023-02-25T11:55:28.872Z,86.37
2023-02-25T11:58:09.743Z,93.27
2023-02-25T12:00:47.533Z,84.73
2023-02-25T12:03:47.368Z,80.07
2023-02-25T12:06:28.390Z,87.13
2023-02-25T12:09:41.876Z,92.67
2023-02-25T12:12:56.996Z,91.50
2023-02-25T12:15:54.854Z,91.07
2023-02-25T12:18:47.491Z,78.77
2023-02-25T12:21:41.333Z,66.57
2023-02-25T12:24:51.346Z,71.20
2023-02-25T12:27:39.868Z,74.33
2023-02-25T12:30:47.814Z,77.43
2023-02-25T12:33:33.487Z,72.80
2023-02-25T12:36:13.868Z,64.77
2023-02-25T12:39:20.732Z,73.67
2023-02-25T12:41:55.374Z,61.37
2023-02-25T12:45:07.734Z,57.50
2023-02-25T12:47:52.773Z,56.13
2023-02-25T12:50:44.905Z,74.90
2023-02-25T12:53:35.948Z,76.60
2023-02-25T12:56:34.950Z,74.97
2023-02-25T12:59:24.921Z,74.83
2023-02-25T13:02:03.663Z,74.43
2023-02-25T13:05:07.995Z,74.90
2023-02-25T13:08:04.496Z,75.40
2023-02-25T13:10:46.224Z,71.33
2023-02-25T13:13:50.864Z,73.07
2023-02-25T13:16:32.513Z,59.10
2023-02-25T13:19:18.961Z,55.43
2023-02-25T13:22:01.665Z,69.27
2023-02-25T13:24:42.660Z,61.93
2023-02-25T13:27:28.755Z,53.33
2023-02-25T13:30:15.946Z,68.53
2023-02-25T13:32:55.337Z,74.20
2023-02-25T13:35:37.028Z,62.00
2023-02-25T13:38:21.031Z,70.57
2023-02-25T13:40:59.685Z,72.27
2023-02-25T13:43:48.425Z,57.10
2023-02-25T13:46:51.417Z,64.00
2023-02-25T13:50:01.860Z,68.43
2023-02-25T13:52:36.709Z,64.97
2023-02-25T13:55:38.836Z,68.90
2023-02-25T13:58:24.747Z,54.87
2023-02-25T14:01:08.869Z,62.97
2023-02-25T14:04:08.953Z,69.53
2023-02-25T14:07:06.737Z,65.17
2023-02-25T14:09:44.112Z,48.83
2023-02-25T14:12:29.122Z,48.27
2023-02-25T14:15:19.237Z,68.37
2023-02-25T14:18:04.474Z,70.17
2023-02-25T14:20:47.163Z,72.47
2023-02-25T14:23:24.070Z,70.47
2023-02-25T14:26:13.327Z,71.07
2023-02-25T14:28:54.648Z,71.70
2023-02-25T14:31:33.395Z,68.93
2023-02-25T14:34:24.931Z,52.10
2023-02-25T14:37:12.221Z,71.13
2023-02-25T14:39:50.076Z,56.30
2023-02-25T14:42:31.196Z,51.73
2023-02-25T14:45:06.535Z,56.30
2023-02-25T14:47:43.834Z,71.27
2023-02-25T14:50:17.038Z,50.63
2023-02-25T14:52:58.466Z,57.20
2023-02-25T14:55:38.232Z,63.57
2023-02-25T14:58:44.085Z,63.47
2023-02-25T15:01:39.778Z,65.03
2023-02-25T15:04:38.173Z,56.93
2023-02-25T15:07:21.437Z,66.27
2023-02-25T15:10:27.684Z,61.40
2023-02-25T15:13:20.163Z,66.50
2023-02-25T15:16:30.254Z,58.17
2023-02-25T15:19:21.698Z,53.57
2023-02-25T15:21:52.293Z,54.07
2023-02-25T15:24:41.496Z,56.00
2023-02-25T15:27:33.714Z,43.40
2023-02-25T15:30:03.371Z,38.60
2023-02-25T15:32:51.048Z,55.50
2023-02-25T15:35:25.354Z,49.43
2023-02-25T15:38:10.861Z,54.07
2023-02-25T15:40:57.723Z,68.43
2023-02-25T15:43:41.667Z,52.20
2023-02-25T15:46:45.746Z,47.47
2023-02-25T15:49:31.622Z,43.30
2023-02-25T15:52:04.644Z,71.23
2023-02-25T15:54:52.648Z,70.70
2023-02-25T15:57:39.022Z,58.87
2023-02-25T16:00:49.903Z,48.67
2023-02-25T16:03:39.939Z,44.57
2023-02-25T16:06:16.847Z,56.30
2023-02-25T16:08:52.784Z,65.43
2023-02-25T16:11:30.042Z,68.07
2023-02-25T16:14:00.303Z,73.50
2023-02-25T16:16:31.464Z,70.47
2023-02-25T16:19:01.362Z,68.33
2023-02-25T16:21:42.119Z,56.80
2023-02-25T16:24:13.665Z,49.03
2023-02-25T16:26:49.217Z,38.60
2023-02-25T16:29:29.084Z,46.57
2023-02-25T16:32:03.244Z,43.70
2023-02-25T16:34:38.299Z,55.23
2023-02-25T16:37:14.525Z,54.30
2023-02-25T16:39:44.920Z,47.30
2023-02-25T16:42:16.682Z,51.03
2023-02-25T16:44:49.017Z,51.83
2023-02-25T16:47:25.832Z,49.20
2023-02-25T16:49:56.790Z,50.63
2023-02-25T16:52:30.314Z,54.53
2023-02-25T16:55:05.369Z,64.53
2023-02-25T16:57:36.330Z,54.97
2023-02-25T17:00:17.107Z,64.57
2023-02-25T17:02:47.682Z,51.77
2023-02-25T17:05:29.090Z,53.20
2023-02-25T17:08:01.189Z,52.33
2023-02-25T17:10:34.065Z,50.70
2023-02-25T17:13:05.207Z,66.73
2023-02-25T17:15:36.717Z,47.93
2023-02-25T17:18:10.435Z,51.20
2023-02-25T17:20:39.572Z,69.47
2023-02-25T17:23:12.200Z,69.63
2023-02-25T17:25:44.066Z,55.43
2023-02-25T17:28:21.421Z,68.67
2023-02-25T17:30:51.120Z,45.33
2023-02-25T17:33:26.114Z,52.07
2023-02-25T17:35:59.946Z,60.47
2023-02-25T17:38:30.025Z,46.23
2023-02-25T17:41:00.201Z,58.33
2023-02-25T17:43:35.721Z,92.33
2023-02-25T17:46:15.209Z,70.83
2023-02-25T17:48:50.892Z,70.47
2023-02-25T17:51:20.000Z,69.63
2023-02-25T17:53:51.360Z,68.47
2023-02-25T17:56:25.216Z,68.10
2023-02-25T17:58:59.267Z,58.43
2023-02-25T18:01:30.805Z,71.13
2023-02-25T18:04:00.937Z,76.50
2023-02-25T18:06:42.831Z,73.33
2023-02-25T18:09:39.796Z,69.93
2023-02-25T18:12:21.281Z,73.47
2023-02-25T18:14:55.188Z,68.97
2023-02-25T18:17:28.437Z,66.50
2023-02-25T18:20:00.082Z,58.00
2023-02-25T18:22:37.657Z,69.53
2023-02-25T18:25:09.446Z,60.13
2023-02-25T18:27:39.280Z,54.70
2023-02-25T18:30:18.263Z,66.07
2023-02-25T18:32:47.358Z,58.43
2023-02-25T18:35:16.787Z,54.07
2023-02-25T18:37:48.755Z,58.90
2023-02-25T18:40:20.897Z,51.97
2023-02-25T18:42:50.823Z,57.10
2023-02-25T18:45:22.131Z,71.23
2023-02-25T18:47:51.595Z,72.27
2023-02-25T18:50:21.340Z,73.83
2023-02-25T18:52:50.160Z,78.33
2023-02-25T18:55:22.255Z,77.67
2023-02-25T18:57:52.659Z,74.23
2023-02-25T19:00:23.501Z,84.07
2023-02-25T19:02:54.080Z,75.03
2023-02-25T19:05:25.425Z,79.63
2023-02-25T19:07:54.806Z,81.87
2023-02-25T19:10:25.952Z,78.97
2023-02-25T19:13:02.111Z,77.33
2023-02-25T19:15:31.477Z,74.13
2023-02-25T19:18:00.307Z,82.43
2023-02-25T19:20:29.089Z,75.07
2023-02-25T19:22:57.698Z,70.80
2023-02-25T19:25:28.349Z,74.60
2023-02-25T19:27:59.379Z,90.87
2023-02-25T19:30:30.791Z,106.57
2023-02-25T19:33:04.335Z,85.53
2023-02-25T19:35:38.946Z,100.30
2023-02-25T19:38:09.943Z,100.63
2023-02-25T19:40:38.981Z,97.13
2023-02-25T19:43:09.608Z,85.73
2023-02-25T19:45:38.604Z,86.43
2023-02-25T19:48:07.428Z,81.97
2023-02-25T19:50:37.026Z,77.23
2023-02-25T19:53:06.901Z,84.33
2023-02-25T19:55:35.913Z,80.73
2023-02-25T19:58:04.604Z,82.97
2023-02-25T20:00:34.950Z,103.90
2023-02-25T20:03:04.876Z,89.17
2023-02-25T20:05:36.588Z,85.93
2023-02-25T20:08:05.803Z,82.43
2023-02-25T20:10:37.613Z,92.33
2023-02-25T20:13:06.377Z,96.90
2023-02-25T20:15:36.678Z,99.03
2023-02-25T20:18:05.881Z,92.23
2023-02-25T20:20:35.068Z,85.43
2023-02-25T20:23:03.866Z,101.30
2023-02-25T20:25:32.928Z,103.13
2023-02-25T20:28:01.943Z,78.57
2023-02-25T20:30:31.669Z,78.27
2023-02-25T20:33:03.321Z,81.73
2023-02-25T20:35:33.151Z,80.20
2023-02-25T20:38:19.282Z,77.63
2023-02-25T20:40:49.023Z,81.10
2023-02-25T20:43:18.274Z,76.00
2023-02-25T20:45:47.675Z,75.20
2023-02-25T20:48:28.083Z,79.70
2023-02-25T20:50:57.841Z,81.13
2023-02-25T20:53:27.001Z,80.17
2023-02-25T20:55:58.513Z,76.87
2023-02-25T20:58:27.898Z,80.23
2023-02-25T21:00:57.583Z,77.73
2023-02-25T21:03:28.132Z,80.70
2023-02-25T21:05:58.261Z,80.20
2023-02-25T21:08:27.945Z,75.10
2023-02-25T21:10:59.330Z,74.50
2023-02-25T21:13:28.551Z,79.00
2023-02-25T21:16:00.888Z,75.67
2023-02-25T21:18:31.893Z,70.03
2023-02-25T21:21:04.181Z,73.00
2023-02-25T21:23:33.168Z,76.57
2023-02-25T21:26:02.544Z,75.17
2023-02-25T21:28:31.202Z,76.47
2023-02-25T21:31:02.792Z,75.27
2023-02-25T21:33:34.044Z,74.47
2023-02-25T21:36:03.954Z,75.30
2023-02-25T21:38:32.551Z,76.70
2023-02-25T21:41:06.511Z,80.10
2023-02-25T21:43:35.403Z,76.40
2023-02-25T21:46:06.618Z,74.63
2023-02-25T21:48:36.506Z,70.23
2023-02-25T21:51:05.667Z,72.67
2023-02-25T21:53:34.677Z,74.40
2023-02-25T21:56:10.621Z,72.97
2023-02-25T21:58:39.262Z,71.97
2023-02-25T22:01:16.502Z,69.30
2023-02-25T22:03:47.403Z,71.87
2023-02-25T22:06:17.188Z,71.10
2023-02-25T22:08:46.591Z,67.83
2023-02-25T22:11:17.599Z,72.77
2023-02-25T22:13:46.130Z,66.20
2023-02-25T22:16:16.002Z,71.77
2023-02-25T22:18:46.564Z,69.90
2023-02-25T22:21:17.488Z,68.67
2023-02-25T22:23:48.350Z,70.93
2023-02-25T22:26:20.204Z,70.17
2023-02-25T22:28:48.838Z,68.37
2023-02-25T22:31:19.116Z,67.73
2023-02-25T22:33:49.078Z,70.20
2023-02-25T22:36:19.118Z,69.67
2023-02-25T22:38:48.698Z,69.20
2023-02-25T22:41:19.640Z,68.67
2023-02-25T22:43:48.289Z,68.60
2023-02-25T22:46:19.548Z,71.23
2023-02-25T22:48:50.702Z,68.87
2023-02-25T22:51:21.609Z,68.33
2023-02-25T22:53:50.290Z,70.40
2023-02-25T22:56:19.346Z,69.70
2023-02-25T22:58:47.860Z,68.27
2023-02-25T23:01:19.310Z,68.20
2023-02-25T23:03:49.684Z,68.30
2023-02-25T23:06:22.160Z,67.73
2023-02-25T23:08:52.133Z,65.63
2023-02-25T23:11:22.955Z,63.00
2023-02-25T23:13:53.697Z,68.10
2023-02-25T23:16:25.656Z,66.30
2023-02-25T23:18:57.959Z,64.30
2023-02-25T23:21:27.999Z,64.67
2023-02-25T23:23:58.950Z,67.13
2023-02-25T23:26:29.660Z,66.43
2023-02-25T23:28:59.604Z,63.83
2023-02-25T23:31:30.885Z,66.37
2023-02-25T23:34:03.249Z,68.13
2023-02-25T23:36:32.093Z,66.23
2023-02-25T23:39:02.188Z,67.03
2023-02-25T23:41:31.040Z,67.33
2023-02-25T23:44:01.771Z,66.70
2023-02-25T23:46:32.560Z,67.47
2023-02-25T23:49:05.590Z,69.33
2023-02-25T23:51:34.885Z,70.77
2023-02-25T23:54:05.983Z,73.80
2023-02-25T23:56:35.465Z,69.43
2023-02-25T23:59:03.994Z,67.83
